Time;durP1;ratioP1;P1;durP2;ratioP2;P2;SDS_P1;SDS_P2;PMS_P1;PMS_P2;Temp;Humidity;BMP_temperature;BMP_pressure;BME280_temperature;BME280_humidity;BME280_pressure;Samples;Min_cycle;Max_cycle;Signal;HPM_P1;HPM_P2
2023/07/20 00:01:05;;;;;;;;;;;21.20;70.00;;;;;;5033202;28;20362;-72
2023/07/20 00:03:31;;;;;;;;;;;21.20;69.90;;;;;;5018267;28;19921;-73
2023/07/20 00:05:56;;;;;;;;;;;21.10;69.80;;;;;;5018047;28;19910;-73
2023/07/20 00:08:22;;;;;;;;;;;21.10;69.70;;;;;;5009195;28;19917;-73
2023/07/20 00:10:47;;;;;;;;;;;21.00;69.40;;;;;;5037128;28;20021;-73
2023/07/20 00:13:13;;;;;;;;;;;20.90;69.30;;;;;;5009765;28;20004;-73
2023/07/20 00:15:38;;;;;;;;;;;20.80;69.10;;;;;;5025144;28;20341;-72
2023/07/20 00:18:04;;;;;;;;;;;20.80;68.80;;;;;;5033248;28;20296;-73
2023/07/20 00:20:29;;;;;;;;;;;20.70;68.40;;;;;;5021553;28;20281;-73
2023/07/20 00:22:57;;;;;;;;;;;20.50;68.20;;;;;;5007031;28;19921;-73
2023/07/20 00:25:23;;;;;;;;;;;20.50;67.90;;;;;;5032270;28;20353;-73
2023/07/20 00:27:49;;;;;;;;;;;20.30;67.70;;;;;;5020127;28;19917;-72
2023/07/20 00:30:14;;;;;;;;;;;20.30;67.90;;;;;;5003877;28;19909;-72
2023/07/20 00:32:41;;;;;;;;;;;20.20;68.20;;;;;;4999069;28;20285;-72
2023/07/20 00:35:06;;;;;;;;;;;20.20;68.50;;;;;;5020519;28;19991;-72
2023/07/20 00:37:32;;;;;;;;;;;20.10;68.60;;;;;;5032026;28;20381;-72
2023/07/20 00:39:57;;;;;;;;;;;20.10;68.80;;;;;;5034349;28;19916;-72
2023/07/20 00:42:23;;;;;;;;;;;20.10;69.00;;;;;;5051326;28;19990;-72
2023/07/20 00:44:48;;;;;;;;;;;20.10;69.20;;;;;;5032970;28;20285;-72
2023/07/20 00:47:14;;;;;;;;;;;20.10;69.40;;;;;;5032474;28;20347;-73
2023/07/20 00:49:39;;;;;;;;;;;20.10;69.60;;;;;;5032279;28;20395;-72
2023/07/20 00:52:06;;;;;;;;;;;20.10;69.80;;;;;;5031842;28;20344;-72
2023/07/20 00:54:32;;;;;;;;;;;20.10;69.90;;;;;;5031578;28;20292;-72
2023/07/20 00:56:58;;;;;;;;;;;20.20;69.90;;;;;;5032146;28;19997;-73
2023/07/20 00:59:24;;;;;;;;;;;20.20;69.80;;;;;;5031507;28;19999;-72
2023/07/20 01:01:49;;;;;;;;;;;20.20;69.80;;;;;;5031941;28;19983;-72
2023/07/20 01:04:15;;;;;;;;;;;20.10;69.70;;;;;;5026774;28;19917;-72
2023/07/20 01:06:43;;;;;;;;;;;20.10;69.50;;;;;;5012357;28;20012;-72
2023/07/20 01:09:31;;;;;;;;;;;20.10;69.40;;;;;;5012217;28;19921;-73
2023/07/20 01:12:06;;;;;;;;;;;20.10;69.40;;;;;;5027826;28;19924;-71
2023/07/20 01:14:32;;;;;;;;;;;20.00;69.30;;;;;;5028566;28;19917;-72
2023/07/20 01:16:57;;;;;;;;;;;20.00;69.30;;;;;;5024914;28;19917;-72
2023/07/20 01:19:23;;;;;;;;;;;20.00;69.20;;;;;;5030971;28;20416;-72
2023/07/20 01:22:07;;;;;;;;;;;20.00;69.10;;;;;;5015187;28;19909;-72
2023/07/20 01:24:41;;;;;;;;;;;20.00;69.00;;;;;;5028338;28;20357;-72
2023/07/20 01:27:28;;;;;;;;;;;19.90;69.00;;;;;;5031793;28;19971;-72
2023/07/20 01:30:10;;;;;;;;;;;19.90;69.50;;;;;;5029966;28;19995;-71
2023/07/20 01:32:36;;;;;;;;;;;19.90;69.90;;;;;;5045092;28;19927;-71
2023/07/20 01:35:02;;;;;;;;;;;20.00;70.00;;;;;;5037431;28;20369;-71
2023/07/20 01:37:29;;;;;;;;;;;20.00;70.00;;;;;;5031226;28;19928;-70
2023/07/20 01:39:55;;;;;;;;;;;20.10;70.10;;;;;;5021867;28;19921;-68
2023/07/20 01:42:21;;;;;;;;;;;20.10;70.10;;;;;;5025605;28;19917;-69
2023/07/20 01:44:47;;;;;;;;;;;20.20;70.20;;;;;;5031439;28;19909;-70
2023/07/20 01:47:13;;;;;;;;;;;20.20;70.20;;;;;;5031359;28;20249;-69
2023/07/20 01:49:38;;;;;;;;;;;20.20;70.20;;;;;;5030245;28;19909;-70
2023/07/20 01:52:04;;;;;;;;;;;20.30;70.20;;;;;;5031222;28;19917;-70
2023/07/20 01:54:30;;;;;;;;;;;20.30;70.10;;;;;;5029257;28;20423;-68
2023/07/20 01:56:55;;;;;;;;;;;20.30;70.10;;;;;;5011452;28;19922;-68
2023/07/20 01:59:20;;;;;;;;;;;20.30;70.10;;;;;;5011213;28;19920;-69
2023/07/20 02:01:46;;;;;;;;;;;20.30;70.00;;;;;;5016962;28;19915;-69
2023/07/20 02:04:12;;;;;;;;;;;20.30;70.00;;;;;;5042535;28;19913;-69
2023/07/20 02:06:38;;;;;;;;;;;20.30;69.90;;;;;;5038178;28;19917;-69
2023/07/20 02:09:03;;;;;;;;;;;20.30;69.90;;;;;;5034515;28;19913;-70
2023/07/20 02:11:29;;;;;;;;;;;20.30;69.90;;;;;;5029399;28;20055;-70
2023/07/20 02:13:54;;;;;;;;;;;20.30;69.80;;;;;;5048689;28;19939;-70
2023/07/20 02:16:20;;;;;;;;;;;20.30;69.90;;;;;;5018927;28;19936;-70
2023/07/20 02:18:45;;;;;;;;;;;20.30;70.10;;;;;;5054483;28;19921;-70
2023/07/20 02:21:11;;;;;;;;;;;20.40;70.20;;;;;;5027782;28;19913;-70
2023/07/20 02:23:36;;;;;;;;;;;20.40;70.30;;;;;;5052141;28;19963;-70
2023/07/20 02:26:01;;;;;;;;;;;20.50;70.40;;;;;;5038659;28;19913;-70
2023/07/20 02:28:27;;;;;;;;;;;20.60;70.40;;;;;;5051690;28;19921;-70
2023/07/20 02:30:53;;;;;;;;;;;20.60;70.50;;;;;;5035884;28;20035;-70
2023/07/20 02:33:19;;;;;;;;;;;20.70;70.30;;;;;;5049475;28;19921;-70
2023/07/20 02:35:45;;;;;;;;;;;20.70;70.40;;;;;;5023275;28;19979;-69
2023/07/20 02:38:10;;;;;;;;;;;20.70;70.30;;;;;;5015232;28;20397;-69
2023/07/20 02:40:36;;;;;;;;;;;20.70;70.10;;;;;;5024375;28;20451;-69
2023/07/20 02:43:01;;;;;;;;;;;20.70;70.00;;;;;;5033693;28;19924;-70
2023/07/20 02:45:27;;;;;;;;;;;20.70;69.90;;;;;;5034680;28;19951;-70
2023/07/20 02:47:52;;;;;;;;;;;20.70;69.90;;;;;;5034269;28;19917;-69
2023/07/20 02:50:17;;;;;;;;;;;20.70;69.80;;;;;;5025774;28;19971;-69
2023/07/20 02:52:43;;;;;;;;;;;20.70;69.80;;;;;;5014421;28;19921;-69
2023/07/20 02:55:09;;;;;;;;;;;20.70;69.70;;;;;;5014878;28;19909;-69
2023/07/20 02:57:35;;;;;;;;;;;20.60;69.50;;;;;;4997096;28;19917;-70
2023/07/20 03:00:01;;;;;;;;;;;20.60;69.30;;;;;;5014131;28;19910;-70
2023/07/20 03:02:29;;;;;;;;;;;20.50;69.20;;;;;;5036361;28;19969;-70
2023/07/20 03:04:57;;;;;;;;;;;20.50;69.00;;;;;;5037731;28;19917;-70
2023/07/20 03:07:22;;;;;;;;;;;20.40;68.90;;;;;;5035258;28;20353;-70
2023/07/20 03:09:48;;;;;;;;;;;20.40;69.10;;;;;;5042804;28;19968;-70
2023/07/20 03:12:13;;;;;;;;;;;20.30;69.50;;;;;;5015467;28;19913;-70
2023/07/20 03:14:39;;;;;;;;;;;20.40;69.80;;;;;;5047214;28;19914;-69
2023/07/20 03:17:04;;;;;;;;;;;20.40;70.00;;;;;;5014300;28;19925;-70
2023/07/20 03:19:30;;;;;;;;;;;20.50;69.80;;;;;;5014011;28;19909;-70
2023/07/20 03:21:55;;;;;;;;;;;20.50;69.70;;;;;;5013735;28;19921;-69
2023/07/20 03:24:21;;;;;;;;;;;20.50;69.90;;;;;;5013765;28;19914;-70
2023/07/20 03:26:46;;;;;;;;;;;20.50;70.00;;;;;;5041582;28;19913;-69
2023/07/20 03:29:12;;;;;;;;;;;20.50;70.00;;;;;;5051093;28;19917;-70
2023/07/20 03:31:37;;;;;;;;;;;20.50;70.20;;;;;;5032642;28;20028;-70
2023/07/20 03:34:02;;;;;;;;;;;20.60;70.00;;;;;;5048393;28;19939;-70
2023/07/20 03:36:28;;;;;;;;;;;20.60;69.80;;;;;;5033776;28;19932;-70
2023/07/20 03:38:53;;;;;;;;;;;20.50;69.40;;;;;;5021357;28;19918;-73
2023/07/20 03:41:19;;;;;;;;;;;20.50;69.60;;;;;;5046404;28;19951;-67
2023/07/20 03:43:45;;;;;;;;;;;20.40;69.20;;;;;;5046604;28;20353;-69
2023/07/20 03:46:10;;;;;;;;;;;20.20;68.70;;;;;;5033476;28;20062;-69
2023/07/20 03:48:36;;;;;;;;;;;20.00;68.70;;;;;;5051531;28;20391;-71
2023/07/20 03:51:01;;;;;;;;;;;19.80;68.80;;;;;;5005473;28;20005;-73
2023/07/20 03:53:27;;;;;;;;;;;19.70;69.00;;;;;;5014053;28;19928;-72
2023/07/20 03:55:52;;;;;;;;;;;19.40;68.80;;;;;;5025230;28;20357;-71
2023/07/20 03:58:18;;;;;;;;;;;19.20;69.30;;;;;;5013981;28;20338;-71
2023/07/20 04:00:48;;;;;;;;;;;19.10;69.70;;;;;;5023319;28;19920;-72
2023/07/20 04:03:14;;;;;;;;;;;19.00;69.90;;;;;;5046641;28;19916;-72
2023/07/20 04:05:39;;;;;;;;;;;19.00;70.30;;;;;;5024616;28;19909;-72
2023/07/20 04:08:05;;;;;;;;;;;18.90;70.50;;;;;;5034115;28;20419;-72
2023/07/20 04:10:30;;;;;;;;;;;18.90;70.60;;;;;;5032209;28;20007;-72
2023/07/20 04:12:56;;;;;;;;;;;18.90;70.80;;;;;;5039785;28;20361;-72
2023/07/20 04:15:21;;;;;;;;;;;19.00;71.10;;;;;;5032761;28;19917;-72
2023/07/20 04:17:47;;;;;;;;;;;19.00;71.20;;;;;;5015007;28;19928;-72
2023/07/20 04:20:12;;;;;;;;;;;19.10;70.90;;;;;;5032068;28;19917;-72
2023/07/20 04:22:38;;;;;;;;;;;19.00;70.70;;;;;;5049589;28;20409;-72
2023/07/20 04:25:04;;;;;;;;;;;19.00;70.60;;;;;;5034406;28;20377;-71
2023/07/20 04:27:29;;;;;;;;;;;19.00;70.80;;;;;;5030475;28;20420;-71
2023/07/20 04:29:56;;;;;;;;;;;19.00;70.90;;;;;;5027471;28;19927;-71
2023/07/20 04:32:21;;;;;;;;;;;19.00;71.00;;;;;;5014361;28;19924;-71
2023/07/20 04:34:47;;;;;;;;;;;19.00;71.10;;;;;;4995065;28;20308;-71
2023/07/20 04:37:12;;;;;;;;;;;19.10;71.10;;;;;;5013382;28;19921;-71
2023/07/20 04:39:37;;;;;;;;;;;19.00;71.10;;;;;;5013159;28;19914;-71
2023/07/20 04:42:03;;;;;;;;;;;19.10;71.00;;;;;;5012477;28;19917;-71
2023/07/20 04:44:28;;;;;;;;;;;19.00;70.90;;;;;;5012633;28;20286;-71
2023/07/20 04:46:54;;;;;;;;;;;19.00;71.00;;;;;;5016163;28;19932;-71
2023/07/20 04:49:19;;;;;;;;;;;19.00;71.10;;;;;;5031642;28;19928;-71
2023/07/20 04:51:45;;;;;;;;;;;19.00;71.20;;;;;;5012703;28;19910;-71
2023/07/20 04:54:11;;;;;;;;;;;19.00;71.20;;;;;;5012475;28;19996;-71
2023/07/20 04:56:36;;;;;;;;;;;19.00;71.20;;;;;;5012276;28;19949;-71
2023/07/20 04:59:01;;;;;;;;;;;19.10;71.30;;;;;;5025530;28;20308;-71
2023/07/20 05:01:27;;;;;;;;;;;19.10;71.20;;;;;;5023635;28;19918;-71
2023/07/20 05:03:53;;;;;;;;;;;19.20;71.50;;;;;;5049343;28;20023;-71
2023/07/20 05:06:18;;;;;;;;;;;19.30;71.60;;;;;;5032144;28;19979;-72
2023/07/20 05:08:44;;;;;;;;;;;19.40;71.60;;;;;;5032630;28;19917;-72
2023/07/20 05:11:10;;;;;;;;;;;19.50;71.50;;;;;;5020231;28;19910;-72
2023/07/20 05:13:36;;;;;;;;;;;19.60;71.70;;;;;;5051421;28;19924;-72
2023/07/20 05:16:01;;;;;;;;;;;19.70;71.60;;;;;;5022773;28;20285;-72
2023/07/20 05:18:27;;;;;;;;;;;19.80;71.30;;;;;;5012594;28;20430;-72
2023/07/20 05:20:54;;;;;;;;;;;19.80;71.60;;;;;;5023385;28;20385;-73
2023/07/20 05:23:20;;;;;;;;;;;19.90;71.60;;;;;;5010426;28;20052;-72
2023/07/20 05:25:46;;;;;;;;;;;19.90;71.50;;;;;;5015138;28;20377;-72
2023/07/20 05:28:11;;;;;;;;;;;20.00;71.40;;;;;;5032286;28;19923;-72
2023/07/20 05:30:37;;;;;;;;;;;20.00;71.30;;;;;;5020514;28;19967;-72
2023/07/20 05:33:02;;;;;;;;;;;20.00;71.40;;;;;;5011489;28;20280;-72
2023/07/20 05:35:28;;;;;;;;;;;20.10;71.30;;;;;;5011795;28;19914;-72
2023/07/20 05:37:53;;;;;;;;;;;20.20;71.30;;;;;;5015372;28;19923;-72
2023/07/20 05:40:19;;;;;;;;;;;20.20;71.50;;;;;;5033949;28;19965;-72
2023/07/20 05:42:49;;;;;;;;;;;20.30;71.50;;;;;;5011511;28;19984;-71
2023/07/20 05:45:15;;;;;;;;;;;20.30;71.40;;;;;;5012669;28;19910;-71
2023/07/20 05:47:44;;;;;;;;;;;20.40;71.30;;;;;;5043059;28;19924;-72
2023/07/20 05:50:09;;;;;;;;;;;20.40;71.60;;;;;;5023622;28;19909;-72
2023/07/20 05:52:35;;;;;;;;;;;20.50;71.70;;;;;;5030966;28;19925;-72
2023/07/20 05:55:03;;;;;;;;;;;20.60;71.80;;;;;;5030589;28;21354;-72
2023/07/20 05:57:28;;;;;;;;;;;20.70;71.70;;;;;;5031312;28;19924;-72
2023/07/20 05:59:54;;;;;;;;;;;20.70;71.50;;;;;;5029034;28;20292;-72
2023/07/20 06:02:19;;;;;;;;;;;20.80;71.50;;;;;;5031079;28;20016;-72
2023/07/20 06:04:44;;;;;;;;;;;20.90;71.40;;;;;;5029649;28;19968;-72
2023/07/20 06:07:10;;;;;;;;;;;20.90;71.40;;;;;;5027552;28;19917;-72
2023/07/20 06:09:36;;;;;;;;;;;21.00;71.40;;;;;;5029031;28;20393;-72
2023/07/20 06:12:01;;;;;;;;;;;21.00;71.50;;;;;;5040239;28;19912;-72
2023/07/20 06:14:27;;;;;;;;;;;21.10;71.60;;;;;;5030351;28;19971;-72
2023/07/20 06:16:52;;;;;;;;;;;21.10;71.70;;;;;;5041963;28;20361;-72
2023/07/20 06:19:18;;;;;;;;;;;21.10;71.50;;;;;;5016662;28;19967;-72
2023/07/20 06:21:43;;;;;;;;;;;21.20;71.50;;;;;;5013020;28;19909;-71
2023/07/20 06:24:09;;;;;;;;;;;21.40;72.00;;;;;;5036188;28;19917;-71
2023/07/20 06:26:39;;;;;;;;;;;21.70;72.50;;;;;;5032687;28;19916;-72
2023/07/20 06:29:06;;;;;;;;;;;22.20;73.00;;;;;;5051246;28;19923;-72
2023/07/20 06:31:31;;;;;;;;;;;22.90;73.70;;;;;;5017304;28;19908;-72
2023/07/20 06:33:57;;;;;;;;;;;23.60;73.60;;;;;;5050250;28;19927;-71
2023/07/20 06:36:22;;;;;;;;;;;24.20;72.90;;;;;;5015891;28;19925;-72
2023/07/20 06:38:48;;;;;;;;;;;24.50;71.70;;;;;;5036290;28;19917;-73
2023/07/20 06:41:13;;;;;;;;;;;24.70;70.40;;;;;;5018380;28;19913;-71
2023/07/20 06:43:39;;;;;;;;;;;24.90;71.00;;;;;;5017471;28;19913;-72
2023/07/20 06:46:04;;;;;;;;;;;25.30;71.80;;;;;;5029567;28;19971;-73
2023/07/20 06:48:30;;;;;;;;;;;25.90;71.30;;;;;;5034738;28;19913;-73
2023/07/20 06:50:55;;;;;;;;;;;26.50;70.50;;;;;;5019393;28;19918;-74
2023/07/20 06:53:21;;;;;;;;;;;27.10;69.70;;;;;;5011463;28;19960;-73
2023/07/20 06:55:46;;;;;;;;;;;27.40;68.50;;;;;;5025140;28;20401;-73
2023/07/20 06:58:12;;;;;;;;;;;27.70;68.40;;;;;;4997171;28;19916;-74
2023/07/20 07:00:37;;;;;;;;;;;28.10;68.00;;;;;;5016671;28;19922;-74
2023/07/20 07:03:03;;;;;;;;;;;28.50;67.50;;;;;;5014556;28;19918;-74
2023/07/20 07:05:28;;;;;;;;;;;28.80;66.50;;;;;;5025796;28;19920;-72
2023/07/20 07:07:54;;;;;;;;;;;29.00;66.50;;;;;;5015735;28;20372;-73
2023/07/20 07:10:19;;;;;;;;;;;28.90;65.00;;;;;;5013187;28;20384;-72
2023/07/20 07:12:44;;;;;;;;;;;28.70;65.40;;;;;;5027332;28;20226;-73
2023/07/20 07:15:13;;;;;;;;;;;28.50;64.30;;;;;;5026343;28;19924;-73
2023/07/20 07:17:38;;;;;;;;;;;28.20;64.90;;;;;;5034524;28;19971;-72
2023/07/20 07:20:05;;;;;;;;;;;28.20;65.90;;;;;;5032241;28;20400;-72
2023/07/20 07:22:30;;;;;;;;;;;28.20;65.80;;;;;;5028360;28;20344;-71
2023/07/20 07:24:56;;;;;;;;;;;28.30;65.00;;;;;;5037615;28;19917;-73
2023/07/20 07:27:21;;;;;;;;;;;28.10;63.90;;;;;;5053679;28;19920;-74
2023/07/20 07:29:49;;;;;;;;;;;28.20;66.60;;;;;;5045339;28;20540;-71
2023/07/20 07:32:14;;;;;;;;;;;28.50;65.90;;;;;;5048222;28;20284;-72
2023/07/20 07:34:40;;;;;;;;;;;28.40;63.50;;;;;;5047044;28;19917;-72
2023/07/20 07:37:05;;;;;;;;;;;28.10;63.30;;;;;;5026623;28;20308;-73
2023/07/20 07:39:31;;;;;;;;;;;28.20;65.70;;;;;;5049352;28;20252;-73
2023/07/20 07:41:57;;;;;;;;;;;28.40;64.60;;;;;;5013717;28;19996;-72
2023/07/20 07:44:22;;;;;;;;;;;28.50;63.10;;;;;;5042110;28;19964;-73
2023/07/20 07:46:48;;;;;;;;;;;28.50;62.70;;;;;;5033194;28;19909;-71
2023/07/20 07:49:14;;;;;;;;;;;28.50;62.40;;;;;;5036153;28;19951;-73
2023/07/20 07:51:39;;;;;;;;;;;28.80;64.60;;;;;;5029366;28;19956;-73
2023/07/20 07:54:05;;;;;;;;;;;29.40;64.20;;;;;;5053371;28;19951;-73
2023/07/20 07:56:30;;;;;;;;;;;29.80;64.70;;;;;;5016239;28;19941;-76
2023/07/20 07:58:56;;;;;;;;;;;29.90;62.90;;;;;;5006506;28;19971;-76
2023/07/20 08:01:22;;;;;;;;;;;29.80;61.90;;;;;;5000751;28;20381;-75
2023/07/20 08:03:47;;;;;;;;;;;29.80;61.70;;;;;;5051906;28;20412;-75
2023/07/20 08:06:13;;;;;;;;;;;30.10;63.70;;;;;;5023978;28;19955;-75
2023/07/20 08:08:39;;;;;;;;;;;30.70;61.50;;;;;;5053238;28;19920;-76
2023/07/20 08:11:04;;;;;;;;;;;31.10;57.90;;;;;;5024763;28;20063;-75
2023/07/20 08:13:30;;;;;;;;;;;31.10;53.00;;;;;;5050427;28;19962;-75
2023/07/20 08:15:56;;;;;;;;;;;30.80;53.60;;;;;;5025690;28;19948;-75
2023/07/20 08:18:21;;;;;;;;;;;30.40;50.10;;;;;;5050116;28;19988;-75
2023/07/20 08:20:47;;;;;;;;;;;30.20;51.40;;;;;;5028348;28;19914;-75
2023/07/20 08:23:13;;;;;;;;;;;30.20;49.60;;;;;;5043683;28;19917;-75
2023/07/20 08:25:41;;;;;;;;;;;30.40;52.00;;;;;;5012472;28;19918;-75
2023/07/20 08:28:07;;;;;;;;;;;31.10;51.50;;;;;;5029611;28;20003;-75
2023/07/20 08:30:46;;;;;;;;;;;31.70;50.00;;;;;;5013835;28;20441;-74
2023/07/20 08:33:16;;;;;;;;;;;32.40;49.30;;;;;;5013269;28;20349;-74
2023/07/20 08:35:42;;;;;;;;;;;32.90;46.90;;;;;;5010411;28;20267;-74
2023/07/20 08:38:08;;;;;;;;;;;33.60;43.70;;;;;;5012915;28;19914;-74
2023/07/20 08:40:38;;;;;;;;;;;34.20;45.00;;;;;;5015243;28;20305;-73
2023/07/20 08:43:04;;;;;;;;;;;34.70;44.00;;;;;;5012868;28;19920;-73
2023/07/20 08:45:31;;;;;;;;;;;34.70;42.00;;;;;;5012843;28;19917;-73
2023/07/20 08:47:58;;;;;;;;;;;34.30;41.00;;;;;;5031049;28;20383;-73
2023/07/20 08:50:25;;;;;;;;;;;34.00;38.70;;;;;;5032543;28;20324;-73
2023/07/20 08:52:52;;;;;;;;;;;34.00;38.60;;;;;;5031409;28;19917;-71
2023/07/20 08:55:18;;;;;;;;;;;34.30;37.90;;;;;;5033591;28;19928;-71
2023/07/20 08:57:45;;;;;;;;;;;34.60;37.70;;;;;;5012290;28;19914;-71
2023/07/20 09:00:13;;;;;;;;;;;35.00;36.30;;;;;;5029176;28;19987;-72
2023/07/20 09:02:42;;;;;;;;;;;35.50;35.90;;;;;;5012294;28;19968;-72
2023/07/20 09:05:09;;;;;;;;;;;35.90;34.10;;;;;;5023597;28;19921;-73
2023/07/20 09:07:38;;;;;;;;;;;35.60;31.00;;;;;;5051896;28;20374;-72
2023/07/20 09:10:05;;;;;;;;;;;35.20;32.50;;;;;;5038868;28;20049;-72
2023/07/20 09:12:38;;;;;;;;;;;34.80;32.60;;;;;;5042740;28;19913;-72
2023/07/20 09:15:04;;;;;;;;;;;34.50;32.40;;;;;;5038921;28;19924;-71
2023/07/20 09:17:29;;;;;;;;;;;34.10;32.20;;;;;;5017096;28;20378;-71
2023/07/20 09:19:55;;;;;;;;;;;33.70;32.20;;;;;;5040608;28;19917;-72
2023/07/20 09:22:20;;;;;;;;;;;33.60;32.30;;;;;;5014348;28;20436;-72
2023/07/20 09:24:46;;;;;;;;;;;33.90;34.00;;;;;;5043593;28;20409;-72
2023/07/20 09:27:12;;;;;;;;;;;34.60;34.50;;;;;;5012411;28;19910;-72
2023/07/20 09:29:50;;;;;;;;;;;35.30;33.10;;;;;;5030241;28;19926;-70
2023/07/20 09:32:20;;;;;;;;;;;35.80;30.20;;;;;;5019654;28;19920;-70
2023/07/20 09:34:46;;;;;;;;;;;35.70;28.40;;;;;;5025812;28;19931;-70
2023/07/20 09:37:11;;;;;;;;;;;35.30;28.30;;;;;;5022347;28;19913;-71
2023/07/20 09:39:46;;;;;;;;;;;34.90;29.70;;;;;;5007834;28;19924;-71
2023/07/20 09:42:12;;;;;;;;;;;34.70;30.50;;;;;;5031563;28;19920;-71
2023/07/20 09:44:38;;;;;;;;;;;34.50;28.90;;;;;;5033659;28;19929;-71
2023/07/20 09:47:04;;;;;;;;;;;34.40;30.60;;;;;;5031475;28;19921;-71
2023/07/20 09:49:29;;;;;;;;;;;34.80;30.90;;;;;;5030416;28;20373;-71
2023/07/20 09:51:55;;;;;;;;;;;35.30;29.80;;;;;;5043911;28;19917;-71
2023/07/20 09:54:21;;;;;;;;;;;35.70;28.60;;;;;;5050186;28;19920;-71
2023/07/20 09:56:48;;;;;;;;;;;36.10;28.40;;;;;;5022548;28;20414;-71
2023/07/20 09:59:14;;;;;;;;;;;36.60;28.30;;;;;;5051077;28;19979;-71
2023/07/20 10:01:41;;;;;;;;;;;37.20;27.80;;;;;;5011351;28;19910;-72
2023/07/20 10:04:09;;;;;;;;;;;37.70;27.30;;;;;;5042381;28;19918;-71
2023/07/20 10:06:36;;;;;;;;;;;38.30;26.80;;;;;;5021275;28;19971;-71
2023/07/20 10:09:03;;;;;;;;;;;38.70;25.90;;;;;;5051331;28;20015;-71
2023/07/20 10:11:31;;;;;;;;;;;39.00;25.50;;;;;;5021510;28;19912;-69
2023/07/20 10:13:58;;;;;;;;;;;39.40;25.30;;;;;;5049437;28;20315;-71
2023/07/20 10:16:35;;;;;;;;;;;39.50;23.90;;;;;;4998042;28;20392;-70
2023/07/20 10:19:25;;;;;;;;;;;39.40;23.60;;;;;;5024433;28;19962;-70
2023/07/20 10:21:56;;;;;;;;;;;39.40;23.70;;;;;;5017822;28;19915;-69
2023/07/20 10:24:22;;;;;;;;;;;39.50;23.40;;;;;;5012746;28;19921;-70
2023/07/20 10:26:48;;;;;;;;;;;39.80;22.60;;;;;;5011175;28;19949;-70
2023/07/20 10:29:14;;;;;;;;;;;40.00;20.80;;;;;;5010893;28;19956;-70
2023/07/20 10:31:40;;;;;;;;;;;39.50;19.80;;;;;;5038442;28;20381;-70
2023/07/20 10:34:06;;;;;;;;;;;38.60;19.10;;;;;;5052671;28;20027;-71
2023/07/20 10:36:31;;;;;;;;;;;37.80;19.90;;;;;;5017892;28;19920;-70
2023/07/20 10:38:57;;;;;;;;;;;37.70;21.30;;;;;;5015427;28;19909;-71
2023/07/20 10:41:24;;;;;;;;;;;37.90;21.10;;;;;;5027095;28;19979;-70
2023/07/20 10:43:50;;;;;;;;;;;38.20;20.70;;;;;;5035093;28;19949;-70
2023/07/20 10:46:41;;;;;;;;;;;38.40;20.80;;;;;;5020998;28;20346;-71
2023/07/20 10:49:08;;;;;;;;;;;38.80;21.20;;;;;;5055010;28;19939;-70
2023/07/20 10:51:41;;;;;;;;;;;39.20;20.40;;;;;;5004762;28;20354;-69
2023/07/20 10:54:29;;;;;;;;;;;39.60;20.50;;;;;;5054742;28;19921;-70
2023/07/20 10:56:55;;;;;;;;;;;39.90;20.20;;;;;;5014750;28;19935;-70
2023/07/20 10:59:24;;;;;;;;;;;40.20;19.80;;;;;;5033012;28;19921;-69
2023/07/20 11:01:50;;;;;;;;;;;40.50;19.90;;;;;;5013892;28;19921;-71
2023/07/20 11:04:18;;;;;;;;;;;40.80;19.70;;;;;;5050517;28;19923;-70
2023/07/20 11:06:44;;;;;;;;;;;40.80;19.20;;;;;;5034280;28;19909;-70
2023/07/20 11:09:14;;;;;;;;;;;40.80;18.70;;;;;;5050815;28;19924;-70
2023/07/20 11:11:40;;;;;;;;;;;40.80;18.30;;;;;;5026504;28;19909;-70
2023/07/20 11:14:07;;;;;;;;;;;40.70;18.80;;;;;;5034234;28;19920;-70
2023/07/20 11:16:33;;;;;;;;;;;40.60;18.90;;;;;;5016845;28;19910;-71
2023/07/20 11:18:59;;;;;;;;;;;40.30;18.80;;;;;;5014890;28;19920;-70
2023/07/20 11:21:24;;;;;;;;;;;39.80;19.00;;;;;;5045402;28;19917;-70
2023/07/20 11:23:51;;;;;;;;;;;39.20;19.20;;;;;;5035843;28;19912;-69
2023/07/20 11:26:19;;;;;;;;;;;38.70;18.60;;;;;;5039041;28;19970;-71
2023/07/20 11:28:49;;;;;;;;;;;37.90;18.30;;;;;;5054704;28;19913;-70
2023/07/20 11:31:16;;;;;;;;;;;37.30;19.60;;;;;;5023884;28;20292;-70
2023/07/20 11:33:41;;;;;;;;;;;37.30;20.60;;;;;;5053648;28;19928;-70
2023/07/20 11:36:08;;;;;;;;;;;37.40;20.70;;;;;;5037775;28;20356;-70
2023/07/20 11:38:33;;;;;;;;;;;37.40;20.60;;;;;;5053679;28;19921;-69
2023/07/20 11:40:59;;;;;;;;;;;37.30;20.70;;;;;;5025278;28;19909;-69
2023/07/20 11:43:25;;;;;;;;;;;37.30;20.90;;;;;;5046132;28;19917;-69
2023/07/20 11:45:51;;;;;;;;;;;37.30;20.80;;;;;;5033433;28;20436;-69
2023/07/20 11:48:17;;;;;;;;;;;37.20;21.00;;;;;;5042070;28;19963;-70
2023/07/20 11:50:42;;;;;;;;;;;36.90;21.00;;;;;;5027898;28;19914;-70
2023/07/20 11:53:08;;;;;;;;;;;36.70;21.30;;;;;;5012903;28;19925;-69
2023/07/20 11:55:33;;;;;;;;;;;36.80;21.80;;;;;;5026597;28;19945;-70
2023/07/20 11:58:05;;;;;;;;;;;37.00;22.20;;;;;;5033769;28;19999;-70
2023/07/20 12:00:34;;;;;;;;;;;37.40;22.30;;;;;;5033489;28;19929;-70
2023/07/20 12:03:00;;;;;;;;;;;37.60;22.00;;;;;;5052833;28;19920;-70
2023/07/20 12:05:26;;;;;;;;;;;37.50;21.20;;;;;;5034335;28;19933;-69
2023/07/20 12:07:52;;;;;;;;;;;37.30;21.20;;;;;;5028052;28;19967;-69
2023/07/20 12:10:23;;;;;;;;;;;37.20;21.10;;;;;;5033223;28;19910;-70
2023/07/20 12:12:49;;;;;;;;;;;37.20;21.20;;;;;;5044590;28;19974;-69
2023/07/20 12:15:17;;;;;;;;;;;37.20;21.00;;;;;;5037275;28;19909;-69
2023/07/20 12:17:43;;;;;;;;;;;37.20;21.10;;;;;;5017955;28;20397;-70
2023/07/20 12:20:09;;;;;;;;;;;37.50;21.10;;;;;;5038820;28;19921;-70
2023/07/20 12:22:38;;;;;;;;;;;37.60;20.90;;;;;;5021386;28;19921;-70
2023/07/20 12:25:08;;;;;;;;;;;37.60;20.70;;;;;;5021618;28;19917;-70
2023/07/20 12:27:35;;;;;;;;;;;37.60;20.70;;;;;;5018555;28;20921;-70
2023/07/20 12:30:01;;;;;;;;;;;37.70;20.50;;;;;;5040728;28;20274;-71
2023/07/20 12:32:26;;;;;;;;;;;37.80;20.30;;;;;;5013274;28;19924;-70
2023/07/20 12:34:52;;;;;;;;;;;38.00;19.70;;;;;;5026996;28;20005;-70
2023/07/20 12:37:20;;;;;;;;;;;38.10;19.90;;;;;;5013268;28;19951;-70
2023/07/20 12:39:47;;;;;;;;;;;37.90;19.70;;;;;;5015802;28;19920;-70
2023/07/20 12:42:14;;;;;;;;;;;37.80;19.60;;;;;;5012454;28;19921;-69
2023/07/20 12:44:40;;;;;;;;;;;37.60;19.70;;;;;;5025538;28;19953;-69
2023/07/20 12:47:06;;;;;;;;;;;37.60;19.80;;;;;;5012510;28;19917;-70
2023/07/20 12:49:31;;;;;;;;;;;37.50;20.00;;;;;;5015404;28;20227;-70
2023/07/20 12:51:56;;;;;;;;;;;37.60;20.00;;;;;;5012424;28;19967;-70
2023/07/20 12:54:22;;;;;;;;;;;37.80;20.00;;;;;;5011038;28;19913;-69
2023/07/20 12:56:47;;;;;;;;;;;38.00;19.60;;;;;;5024450;28;19932;-70
2023/07/20 12:59:13;;;;;;;;;;;38.30;19.80;;;;;;5032549;28;20391;-70
2023/07/20 13:01:41;;;;;;;;;;;38.40;19.50;;;;;;5030612;28;20395;-70
2023/07/20 13:04:08;;;;;;;;;;;38.50;19.20;;;;;;5012212;28;20434;-71
2023/07/20 13:06:34;;;;;;;;;;;38.70;19.20;;;;;;5031014;28;20285;-69
2023/07/20 13:09:00;;;;;;;;;;;38.70;19.10;;;;;;5044702;28;19917;-69
2023/07/20 13:11:26;;;;;;;;;;;38.90;19.40;;;;;;5020520;28;19909;-69
2023/07/20 13:13:51;;;;;;;;;;;39.00;19.20;;;;;;5025094;28;19966;-71
2023/07/20 13:16:17;;;;;;;;;;;39.00;18.80;;;;;;5018439;28;20001;-76
2023/07/20 13:18:42;;;;;;;;;;;38.80;17.70;;;;;;5024966;28;19917;-76
2023/07/20 13:21:10;;;;;;;;;;;38.30;18.10;;;;;;5017225;28;19921;-76
2023/07/20 13:23:36;;;;;;;;;;;37.70;18.40;;;;;;5012099;28;20020;-76
2023/07/20 13:26:03;;;;;;;;;;;37.00;18.70;;;;;;5024908;28;19922;-77
2023/07/20 13:28:28;;;;;;;;;;;36.40;19.30;;;;;;5051978;28;19921;-77
2023/07/20 13:30:53;;;;;;;;;;;36.00;19.60;;;;;;5025485;28;19936;-76
2023/07/20 13:33:19;;;;;;;;;;;35.90;20.30;;;;;;5051203;28;19921;-77
2023/07/20 13:35:44;;;;;;;;;;;35.90;20.20;;;;;;5026993;28;19910;-77
2023/07/20 13:38:10;;;;;;;;;;;35.80;20.30;;;;;;5043901;28;19917;-77
2023/07/20 13:40:36;;;;;;;;;;;35.60;20.20;;;;;;5029683;28;19921;-75
2023/07/20 13:43:02;;;;;;;;;;;35.30;20.10;;;;;;5023255;28;19917;-77
2023/07/20 13:45:27;;;;;;;;;;;35.20;20.40;;;;;;5013190;28;19913;-76
2023/07/20 13:47:53;;;;;;;;;;;35.10;20.70;;;;;;5047254;28;20016;-78
2023/07/20 13:50:18;;;;;;;;;;;34.90;21.00;;;;;;5039835;28;19924;-77
2023/07/20 13:52:44;;;;;;;;;;;34.70;21.00;;;;;;5030548;28;19925;-76
2023/07/20 13:55:09;;;;;;;;;;;34.40;21.40;;;;;;5029760;28;19921;-76
2023/07/20 13:57:35;;;;;;;;;;;34.30;21.60;;;;;;5045111;28;19921;-77
2023/07/20 14:00:01;;;;;;;;;;;34.00;21.60;;;;;;5039425;28;20004;-76
2023/07/20 14:02:27;;;;;;;;;;;33.70;21.90;;;;;;5025826;28;20356;-77
2023/07/20 14:04:55;;;;;;;;;;;33.50;22.20;;;;;;5034192;28;20023;-76
2023/07/20 14:07:21;;;;;;;;;;;33.50;22.60;;;;;;5050830;28;19927;-77
2023/07/20 14:09:46;;;;;;;;;;;33.50;22.60;;;;;;5043201;28;20289;-76
2023/07/20 14:12:13;;;;;;;;;;;33.30;22.30;;;;;;5050806;28;20331;-77